Time;durP1;ratioP1;P1;durP2;ratioP2;P2;SDS_P1;SDS_P2;PMS_P1;PMS_P2;Temp;Humidity;BMP_temperature;BMP_pressure;BME280_temperature;BME280_humidity;BME280_pressure;Samples;Min_cycle;Max_cycle;Signal;HPM_P1;HPM_P2
2022/07/07 00:02:07;;;;;;;4.72;1.65;;;18.10;87.00;;;;;;5095118;28;20024;-64
2022/07/07 00:04:33;;;;;;;3.30;0.93;;;18.10;87.00;;;;;;5095074;28;20032;-63
2022/07/07 00:06:59;;;;;;;4.50;1.60;;;18.10;87.20;;;;;;5094738;28;20111;-63
2022/07/07 00:09:25;;;;;;;;;;;18.10;87.20;;;;;;5095430;28;20077;-65
2022/07/07 00:11:51;;;;;;;3.92;1.17;;;18.10;86.80;;;;;;5094779;28;19904;-63
2022/07/07 00:14:17;;;;;;;2.22;1.17;;;18.00;86.60;;;;;;5094633;28;20408;-63
2022/07/07 00:16:43;;;;;;;1.60;1.20;;;18.00;86.90;;;;;;5094233;28;20038;-64
2022/07/07 00:19:09;;;;;;;3.17;1.08;;;18.00;87.30;;;;;;5095581;28;20254;-64
2022/07/07 00:21:34;;;;;;;2.45;1.20;;;18.00;87.50;;;;;;5095378;28;20376;-65
2022/07/07 00:24:00;;;;;;;3.88;1.00;;;18.00;87.60;;;;;;5095698;28;20426;-64
2022/07/07 00:26:26;;;;;;;2.35;0.90;;;18.00;88.30;;;;;;5095421;28;20024;-64
2022/07/07 00:28:51;;;;;;;4.78;1.23;;;17.90;88.80;;;;;;5095577;28;20019;-64
2022/07/07 00:31:17;;;;;;;2.28;1.30;;;18.00;89.50;;;;;;5095179;28;20081;-65
2022/07/07 00:33:43;;;;;;;4.13;1.42;;;18.00;90.00;;;;;;5095176;28;20542;-64
2022/07/07 00:36:09;;;;;;;7.30;2.08;;;18.00;90.30;;;;;;5093535;28;20039;-63
2022/07/07 00:38:35;;;;;;;6.18;1.30;;;18.00;90.60;;;;;;5094805;28;20036;-65
2022/07/07 00:41:01;;;;;;;2.05;1.20;;;18.00;90.80;;;;;;5094387;28;20039;-64
2022/07/07 00:43:27;;;;;;;3.03;1.38;;;18.00;91.10;;;;;;5094094;28;20456;-63
2022/07/07 00:45:52;;;;;;;4.57;1.35;;;17.90;91.40;;;;;;5093898;28;20036;-65
2022/07/07 00:48:19;;;;;;;3.58;1.35;;;17.80;91.60;;;;;;5094070;28;20042;-64
2022/07/07 00:50:46;;;;;;;3.47;1.10;;;17.80;92.10;;;;;;5094148;28;20039;-64
2022/07/07 00:53:12;;;;;;;3.63;1.15;;;17.70;92.60;;;;;;5093997;28;20024;-64
2022/07/07 00:55:39;;;;;;;2.60;1.35;;;17.70;92.60;;;;;;5093816;28;20111;-64
2022/07/07 00:58:05;;;;;;;2.95;1.60;;;17.70;92.50;;;;;;5094275;28;20047;-63
2022/07/07 01:00:30;;;;;;;4.57;1.20;;;17.70;92.40;;;;;;5104895;28;20020;-64
2022/07/07 01:02:56;;;;;;;1.85;1.20;;;17.70;92.50;;;;;;5094301;28;20392;-65
2022/07/07 01:05:23;;;;;;;4.15;1.27;;;17.70;92.60;;;;;;5093634;28;20377;-64
2022/07/07 01:07:51;;;;;;;4.38;1.17;;;17.70;92.30;;;;;;5095989;28;20028;-63
2022/07/07 01:10:17;;;;;;;2.63;1.10;;;17.70;92.20;;;;;;5096484;28;20106;-62
2022/07/07 01:12:42;;;;;;;1.85;1.05;;;17.60;92.00;;;;;;5095168;28;20024;-64
2022/07/07 01:15:10;;;;;;;2.35;1.10;;;17.60;92.10;;;;;;5093867;28;20036;-63
2022/07/07 01:17:36;;;;;;;2.33;1.20;;;17.70;91.30;;;;;;5093948;28;20477;-64
2022/07/07 01:20:04;;;;;;;2.65;1.33;;;17.70;91.20;;;;;;5093898;28;20387;-64
2022/07/07 01:22:34;;;;;;;1.95;1.00;;;17.80;90.90;;;;;;5093639;28;20116;-64
2022/07/07 01:24:59;;;;;;;1.77;1.00;;;17.60;91.20;;;;;;5093724;28;20028;-64
2022/07/07 01:27:25;;;;;;;3.17;1.08;;;17.70;91.20;;;;;;5093276;28;20027;-64
2022/07/07 01:29:56;;;;;;;3.88;0.90;;;17.50;91.20;;;;;;5093287;28;20055;-68
2022/07/07 01:32:23;;;;;;;3.42;1.10;;;17.30;91.90;;;;;;5093522;28;20061;-68
2022/07/07 01:34:49;;;;;;;5.47;1.30;;;17.10;92.80;;;;;;5093090;28;20028;-67
2022/07/07 01:37:17;;;;;;;2.00;1.20;;;17.20;93.30;;;;;;5093092;28;20024;-68
2022/07/07 01:39:43;;;;;;;2.53;1.30;;;17.00;93.50;;;;;;5093236;28;20047;-68
2022/07/07 01:42:10;;;;;;;3.38;1.10;;;16.90;94.10;;;;;;5091808;28;20024;-68
2022/07/07 01:44:37;;;;;;;2.03;1.05;;;16.80;94.40;;;;;;5093104;28;20115;-68
2022/07/07 01:47:04;;;;;;;4.00;1.65;;;16.80;94.80;;;;;;5093929;28;20461;-68
2022/07/07 01:49:31;;;;;;;2.30;1.05;;;16.90;94.90;;;;;;5094596;28;20024;-68
2022/07/07 01:51:57;;;;;;;1.83;1.10;;;16.80;95.10;;;;;;5094610;28;20392;-68
2022/07/07 01:54:23;;;;;;;;;;;16.80;95.40;;;;;;5094414;28;20107;-67
2022/07/07 01:56:49;;;;;;;2.67;1.02;;;16.80;95.60;;;;;;5092957;28;19954;-68
2022/07/07 01:59:14;;;;;;;2.28;1.25;;;16.70;96.00;;;;;;5091685;28;20505;-68
2022/07/07 02:01:40;;;;;;;2.37;1.03;;;16.70;96.40;;;;;;5093110;28;20032;-68
2022/07/07 02:04:05;;;;;;;3.22;1.27;;;16.60;96.90;;;;;;5094068;28;20042;-67
2022/07/07 02:06:32;;;;;;;3.63;1.60;;;16.50;97.50;;;;;;5096569;28;20028;-68
2022/07/07 02:08:58;;;;;;;4.97;1.23;;;16.40;97.90;;;;;;5096915;28;20258;-68
2022/07/07 02:11:24;;;;;;;2.88;1.40;;;16.40;98.10;;;;;;5096625;28;20059;-68
2022/07/07 02:13:51;;;;;;;;;;;16.60;98.10;;;;;;5096981;28;20160;-67
2022/07/07 02:16:19;;;;;;;3.92;1.08;;;16.80;97.50;;;;;;5095442;28;20325;-67
2022/07/07 02:18:46;;;;;;;3.42;1.30;;;16.80;97.50;;;;;;5095246;28;20024;-67
2022/07/07 02:21:13;;;;;;;3.25;1.20;;;16.70;97.90;;;;;;5096631;28;20130;-67
2022/07/07 02:23:41;;;;;;;5.80;1.10;;;16.80;98.10;;;;;;5096296;28;20031;-67
2022/07/07 02:26:07;;;;;;;3.13;1.20;;;16.90;97.90;;;;;;5096974;28;20057;-67
2022/07/07 02:28:33;;;;;;;2.95;1.33;;;16.90;97.90;;;;;;5096966;28;20042;-68
2022/07/07 02:30:59;;;;;;;6.17;2.13;;;16.80;98.20;;;;;;5096298;28;20085;-67
2022/07/07 02:33:25;;;;;;;;;;;16.70;98.50;;;;;;5097009;28;20266;-68
2022/07/07 02:35:51;;;;;;;2.67;1.08;;;16.90;98.20;;;;;;5096640;28;19912;-67
2022/07/07 02:38:17;;;;;;;5.95;1.38;;;16.90;97.80;;;;;;5096472;28;20047;-68
2022/07/07 02:40:42;;;;;;;6.13;1.42;;;17.00;97.80;;;;;;5096050;28;20404;-67
2022/07/07 02:43:12;;;;;;;4.82;1.40;;;17.00;97.40;;;;;;5094728;28;20055;-67
2022/07/07 02:45:39;;;;;;;2.92;1.20;;;17.10;97.30;;;;;;5095926;28;20411;-68
2022/07/07 02:48:06;;;;;;;2.95;1.42;;;17.00;97.20;;;;;;5096221;28;20016;-71
2022/07/07 02:50:31;;;;;;;1.73;1.00;;;17.00;97.20;;;;;;5095843;28;20380;-67
2022/07/07 02:52:57;;;;;;;3.57;1.10;;;17.00;97.20;;;;;;5096029;28;20024;-67
2022/07/07 02:55:24;;;;;;;3.27;1.20;;;16.90;97.20;;;;;;5096154;28;20268;-68
2022/07/07 02:57:49;;;;;;;7.30;1.10;;;16.80;97.20;;;;;;5095704;28;20027;-68
2022/07/07 03:00:15;;;;;;;1.37;1.13;;;16.70;97.30;;;;;;5096630;28;20073;-68
2022/07/07 03:02:41;;;;;;;6.18;1.40;;;16.80;97.50;;;;;;5095726;28;20266;-68
2022/07/07 03:05:07;;;;;;;3.72;1.15;;;16.80;97.40;;;;;;5095784;28;20593;-68
2022/07/07 03:07:33;;;;;;;3.70;1.25;;;16.60;97.50;;;;;;5095467;28;20063;-67
2022/07/07 03:09:58;;;;;;;2.93;1.50;;;16.50;98.10;;;;;;5095452;28;20024;-67
2022/07/07 03:12:24;;;;;;;3.67;1.50;;;16.40;98.40;;;;;;5095495;28;20023;-67
2022/07/07 03:14:49;;;;;;;2.77;1.10;;;16.40;98.80;;;;;;5095392;28;20266;-68
2022/07/07 03:17:15;;;;;;;3.47;1.50;;;16.50;98.60;;;;;;5094188;28;20254;-67
2022/07/07 03:19:40;;;;;;;1.42;1.23;;;16.50;98.80;;;;;;5094019;28;20096;-67
2022/07/07 03:22:06;;;;;;;5.47;1.30;;;16.40;98.80;;;;;;5096643;28;20039;-69
2022/07/07 03:24:31;;;;;;;2.35;1.20;;;16.40;99.00;;;;;;5095972;28;20024;-68
2022/07/07 03:26:59;;;;;;;2.60;1.30;;;16.40;99.30;;;;;;5095497;28;20036;-68
2022/07/07 03:29:25;;;;;;;3.08;1.02;;;16.50;99.20;;;;;;5095174;28;20024;-68
2022/07/07 03:31:50;;;;;;;3.88;1.50;;;16.50;99.30;;;;;;5095767;28;20042;-67
2022/07/07 03:34:16;;;;;;;2.88;1.27;;;16.40;99.20;;;;;;5095159;28;20119;-67
2022/07/07 03:36:41;;;;;;;2.43;1.30;;;16.40;99.30;;;;;;5095113;28;20021;-67
2022/07/07 03:39:07;;;;;;;2.93;1.13;;;16.50;99.50;;;;;;5093499;28;20269;-67
2022/07/07 03:41:33;;;;;;;6.28;1.35;;;16.50;99.20;;;;;;5093412;28;20035;-68
2022/07/07 03:43:58;;;;;;;2.28;1.23;;;16.40;99.30;;;;;;5095018;28;20024;-67
2022/07/07 03:46:24;;;;;;;4.57;1.30;;;16.40;99.30;;;;;;5094890;28;20020;-67
2022/07/07 03:48:49;;;;;;;2.43;1.33;;;16.30;99.60;;;;;;5094607;28;20024;-67
2022/07/07 03:51:15;;;;;;;1.33;1.07;;;16.20;99.80;;;;;;5094868;28;20023;-68
2022/07/07 03:53:40;;;;;;;3.35;1.60;;;16.10;99.90;;;;;;5093238;28;20032;-67
2022/07/07 03:56:06;;;;;;;3.27;1.40;;;16.10;99.90;;;;;;5094534;28;20032;-68
2022/07/07 03:58:31;;;;;;;2.67;1.17;;;16.10;99.90;;;;;;5093165;28;20024;-68
2022/07/07 04:00:59;;;;;;;3.30;1.30;;;16.00;99.90;;;;;;5094651;28;20059;-67
2022/07/07 04:03:25;;;;;;;2.35;1.35;;;16.00;99.90;;;;;;5094334;28;20031;-69
2022/07/07 04:05:51;;;;;;;1.90;1.10;;;15.90;99.90;;;;;;5094651;28;20028;-67
2022/07/07 04:08:16;;;;;;;3.57;1.13;;;16.00;99.90;;;;;;5094402;28;20020;-68
2022/07/07 04:10:42;;;;;;;3.20;1.42;;;16.00;99.90;;;;;;5094944;28;20103;-67
2022/07/07 04:13:08;;;;;;;5.70;1.40;;;15.90;99.90;;;;;;5094467;28;20036;-68
2022/07/07 04:15:34;;;;;;;2.93;1.13;;;15.90;99.90;;;;;;5094950;28;20111;-68
2022/07/07 04:18:00;;;;;;;3.38;1.30;;;15.90;99.90;;;;;;5094484;28;20059;-67
2022/07/07 04:20:26;;;;;;;3.50;1.17;;;16.00;99.90;;;;;;5094316;28;20032;-68
2022/07/07 04:22:52;;;;;;;3.22;1.58;;;16.00;99.90;;;;;;5094090;28;20024;-69
2022/07/07 04:25:18;;;;;;;5.17;1.50;;;16.00;99.90;;;;;;5095378;28;20103;-68
2022/07/07 04:27:44;;;;;;;2.33;1.30;;;16.00;99.90;;;;;;5095630;28;20255;-69
2022/07/07 04:30:10;;;;;;;7.28;1.77;;;16.00;99.90;;;;;;5094127;28;20099;-65
2022/07/07 04:32:36;;;;;;;2.40;1.30;;;16.10;99.90;;;;;;5094346;28;20032;-68
2022/07/07 04:35:02;;;;;;;5.27;1.80;;;16.10;99.90;;;;;;5094313;28;20038;-68
2022/07/07 04:37:27;;;;;;;1.90;1.38;;;16.20;99.90;;;;;;5092663;28;20035;-67
2022/07/07 04:39:53;;;;;;;3.17;1.58;;;16.20;99.90;;;;;;5094091;28;20040;-67
2022/07/07 04:42:19;;;;;;;3.63;1.45;;;16.30;99.90;;;;;;5094658;28;20032;-68
2022/07/07 04:44:44;;;;;;;3.17;1.40;;;16.40;99.90;;;;;;5094733;28;20059;-67
2022/07/07 04:47:10;;;;;;;5.05;1.45;;;16.50;99.90;;;;;;5094169;28;20020;-66
2022/07/07 04:49:35;;;;;;;5.57;1.45;;;16.50;99.90;;;;;;5094012;28;20476;-67
2022/07/07 04:52:01;;;;;;;2.35;1.42;;;16.60;99.90;;;;;;5094309;28;20016;-67
2022/07/07 04:54:26;;;;;;;5.10;1.60;;;16.60;99.90;;;;;;5096690;28;20043;-67
2022/07/07 04:56:53;;;;;;;6.78;1.67;;;16.70;99.90;;;;;;5095345;28;20028;-67
2022/07/07 04:59:18;;;;;;;5.10;1.83;;;16.70;99.90;;;;;;5094772;28;20040;-67
2022/07/07 05:01:44;;;;;;;5.13;1.50;;;16.80;99.80;;;;;;5096293;28;20507;-67
2022/07/07 05:04:09;;;;;;;3.70;1.65;;;16.80;99.90;;;;;;5097024;28;20039;-67
2022/07/07 05:06:35;;;;;;;2.03;1.40;;;16.90;99.60;;;;;;5095709;28;20095;-67
2022/07/07 05:09:01;;;;;;;5.40;1.80;;;16.90;99.70;;;;;;5093894;28;20035;-69
2022/07/07 05:11:26;;;;;;;2.72;1.42;;;16.90;99.80;;;;;;5093346;28;20307;-68
2022/07/07 05:13:52;;;;;;;2.37;1.97;;;16.90;99.90;;;;;;5093548;28;20028;-68
2022/07/07 05:16:17;;;;;;;2.27;1.70;;;16.90;99.90;;;;;;5093543;28;20341;-69
2022/07/07 05:18:43;;;;;;;5.00;1.60;;;17.00;99.90;;;;;;5093359;28;20288;-67
2022/07/07 05:21:09;;;;;;;3.63;1.55;;;17.00;99.90;;;;;;5094274;28;20032;-66
2022/07/07 05:23:34;;;;;;;1.88;1.48;;;17.10;99.90;;;;;;5093174;28;20081;-68
2022/07/07 05:26:00;;;;;;;3.72;1.90;;;17.10;99.60;;;;;;5093546;28;20389;-68
2022/07/07 05:28:25;;;;;;;3.00;1.67;;;17.20;99.60;;;;;;5093501;28;20461;-68
2022/07/07 05:30:52;;;;;;;5.40;2.05;;;17.30;99.50;;;;;;5093695;28;20026;-64
2022/07/07 05:33:17;;;;;;;5.80;1.60;;;17.50;99.30;;;;;;5092056;28;20055;-65
2022/07/07 05:35:43;;;;;;;3.03;1.60;;;17.50;98.80;;;;;;5093281;28;20504;-65
2022/07/07 05:38:08;;;;;;;4.00;1.90;;;17.60;98.70;;;;;;5093123;28;20093;-65
2022/07/07 05:40:34;;;;;;;5.65;1.83;;;17.60;98.50;;;;;;5096511;28;20028;-65
2022/07/07 05:43:00;;;;;;;5.00;1.20;;;17.50;98.50;;;;;;5097332;28;20035;-66
2022/07/07 05:45:25;;;;;;;3.45;1.48;;;17.60;98.50;;;;;;5095878;28;20103;-67
2022/07/07 05:47:51;;;;;;;2.42;1.65;;;17.60;98.20;;;;;;5097197;28;20020;-67
2022/07/07 05:50:17;;;;;;;3.63;1.65;;;17.70;98.00;;;;;;5097307;28;20072;-67
2022/07/07 05:52:43;;;;;;;3.65;1.80;;;17.70;97.80;;;;;;5096866;28;20039;-66
2022/07/07 05:55:08;;;;;;;7.40;1.63;;;17.70;97.90;;;;;;5097241;28;20381;-66
2022/07/07 05:57:34;;;;;;;1.83;1.27;;;17.70;97.40;;;;;;5097432;28;20043;-66
2022/07/07 06:00:00;;;;;;;2.95;1.27;;;17.70;97.40;;;;;;5097000;28;20078;-68
2022/07/07 06:02:25;;;;;;;5.28;1.95;;;17.80;97.30;;;;;;5096849;28;20082;-68
2022/07/07 06:04:51;;;;;;;3.10;1.45;;;17.80;97.10;;;;;;5097112;28;20032;-67
2022/07/07 06:07:17;;;;;;;4.40;1.13;;;18.00;96.90;;;;;;5096129;28;20040;-67
2022/07/07 06:09:42;;;;;;;4.40;1.20;;;18.10;96.60;;;;;;5098586;28;20020;-67
2022/07/07 06:12:09;;;;;;;6.90;1.77;;;18.20;96.30;;;;;;5099830;28;20036;-66
2022/07/07 06:14:35;;;;;;;3.40;1.40;;;18.30;96.10;;;;;;5095823;28;20028;-69
2022/07/07 06:17:00;;;;;;;7.30;1.48;;;18.50;95.80;;;;;;5095384;28;20069;-66
2022/07/07 06:19:26;;;;;;;3.58;1.75;;;18.70;95.20;;;;;;5096509;28;20028;-67
2022/07/07 06:21:52;;;;;;;5.50;1.30;;;18.80;95.00;;;;;;5096628;28;20028;-66
2022/07/07 06:24:18;;;;;;;2.17;1.25;;;19.00;95.00;;;;;;5096668;28;20035;-66
2022/07/07 06:26:43;;;;;;;2.13;1.45;;;19.00;94.70;;;;;;5096580;28;20024;-67
2022/07/07 06:29:09;;;;;;;7.63;2.60;;;19.30;94.30;;;;;;5096368;28;20024;-66
2022/07/07 06:31:35;;;;;;;4.78;1.63;;;19.30;93.50;;;;;;5096979;28;20023;-66
2022/07/07 06:34:01;;;;;;;6.25;1.60;;;19.50;93.00;;;;;;5096525;28;20429;-67
2022/07/07 06:36:26;;;;;;;4.97;1.20;;;19.60;92.50;;;;;;5094846;28;20021;-67
2022/07/07 06:38:52;;;;;;;3.60;1.55;;;19.70;92.20;;;;;;5097422;28;20044;-66
2022/07/07 06:41:17;;;;;;;3.28;1.42;;;19.70;92.00;;;;;;5098228;28;20028;-66
2022/07/07 06:43:43;;;;;;;5.65;1.50;;;19.70;91.80;;;;;;5097450;28;20074;-65
2022/07/07 06:46:09;;;;;;;4.45;1.48;;;19.80;91.80;;;;;;5095931;28;20032;-65
2022/07/07 06:48:34;;;;;;;6.65;1.20;;;19.90;91.60;;;;;;5096450;28;20031;-66
2022/07/07 06:51:00;;;;;;;1.70;1.00;;;19.70;91.80;;;;;;5096840;28;20473;-66
2022/07/07 06:53:26;;;;;;;3.63;1.20;;;19.60;92.10;;;;;;5095830;28;20024;-66
2022/07/07 06:55:52;;;;;;;4.30;1.30;;;19.40;92.30;;;;;;5095765;28;20032;-67
2022/07/07 06:58:17;;;;;;;3.00;1.27;;;19.30;92.50;;;;;;5096358;28;20020;-67
2022/07/07 07:00:43;;;;;;;3.78;1.38;;;19.20;92.70;;;;;;5097276;28;20373;-66
2022/07/07 07:03:08;;;;;;;3.78;1.23;;;19.10;92.80;;;;;;5097967;28;20384;-65
2022/07/07 07:05:34;;;;;;;2.75;1.17;;;19.00;93.00;;;;;;5097304;28;20537;-66
2022/07/07 07:08:00;;;;;;;4.60;1.30;;;18.90;93.00;;;;;;5097409;28;20039;-66
2022/07/07 07:10:26;;;;;;;5.78;1.65;;;18.90;93.40;;;;;;5096954;28;20020;-66
2022/07/07 07:12:51;;;;;;;3.35;1.58;;;18.90;93.70;;;;;;5099397;28;20020;-66
2022/07/07 07:15:17;;;;;;;4.35;1.40;;;18.80;93.60;;;;;;5101331;28;20050;-65
2022/07/07 07:17:42;;;;;;;3.00;1.38;;;18.80;93.70;;;;;;5100858;28;20029;-66
2022/07/07 07:20:09;;;;;;;2.33;1.30;;;18.80;93.90;;;;;;5102013;28;20412;-66
2022/07/07 07:22:41;;;;;;;;;;;18.70;94.10;;;;;;5103022;28;20024;-65
2022/07/07 07:25:07;;;;;;;3.53;1.27;;;18.70;94.10;;;;;;5100584;28;19915;-66
2022/07/07 07:27:34;;;;;;;3.70;1.70;;;18.70;94.20;;;;;;5094400;28;20058;-65
2022/07/07 07:30:00;;;;;;;3.38;1.15;;;18.70;94.30;;;;;;5095525;28;20024;-65
2022/07/07 07:32:25;;;;;;;5.65;1.65;;;18.90;94.50;;;;;;5095682;28;20024;-66
2022/07/07 07:34:51;;;;;;;2.63;1.33;;;19.00;94.20;;;;;;5094686;28;20036;-65
2022/07/07 07:37:16;;;;;;;6.93;1.30;;;19.10;94.20;;;;;;5095778;28;20043;-66
2022/07/07 07:39:42;;;;;;;3.00;1.33;;;19.20;94.10;;;;;;5096080;28;20036;-65
2022/07/07 07:42:08;;;;;;;3.20;1.20;;;19.30;94.00;;;;;;5094365;28;20028;-65
2022/07/07 07:47:17;;;;;;;4.57;1.40;;;19.40;94.00;;;;;;5098041;28;20042;-66
2022/07/07 07:49:43;;;;;;;3.47;1.38;;;19.50;94.00;;;;;;5094693;28;20487;-66
2022/07/07 07:52:08;;;;;;;2.80;1.25;;;19.60;94.00;;;;;;5094414;28;20468;-66
2022/07/07 07:54:34;;;;;;;3.97;1.38;;;19.70;93.80;;;;;;5095596;28;20059;-67
2022/07/07 07:57:00;;;;;;;5.13;1.60;;;19.80;93.80;;;;;;5095522;28;20107;-65
2022/07/07 07:59:25;;;;;;;7.63;1.95;;;19.70;94.00;;;;;;5095427;28;20054;-65
2022/07/07 08:01:51;;;;;;;4.40;1.40;;;19.60;94.10;;;;;;5094794;28;20028;-67
2022/07/07 08:04:17;;;;;;;2.28;1.27;;;19.50;94.40;;;;;;5095720;28;20475;-65
2022/07/07 08:06:42;;;;;;;3.80;1.70;;;19.40;94.70;;;;;;5093754;28;20393;-65
2022/07/07 08:09:08;;;;;;;2.28;1.38;;;19.30;95.00;;;;;;5095329;28;20028;-65
2022/07/07 08:11:34;;;;;;;5.72;1.73;;;19.30;95.20;;;;;;5095836;28;20111;-66
2022/07/07 08:13:59;;;;;;;4.63;1.88;;;19.20;95.50;;;;;;5095882;28;20024;-66
2022/07/07 08:16:25;;;;;;;2.35;1.50;;;19.20;95.70;;;;;;5095045;28;20349;-67
2022/07/07 08:18:50;;;;;;;4.70;1.55;;;19.10;96.00;;;;;;5094503;28;20476;-65
2022/07/07 08:21:16;;;;;;;4.38;1.48;;;19.00;96.20;;;;;;5094908;28;20349;-64
2022/07/07 08:23:41;;;;;;;2.97;1.55;;;19.10;96.40;;;;;;5094556;28;20039;-64
2022/07/07 08:26:07;;;;;;;7.25;1.63;;;19.10;96.70;;;;;;5094548;28;20036;-65
2022/07/07 08:28:32;;;;;;;4.10;1.50;;;19.10;96.90;;;;;;5094660;28;20486;-66
2022/07/07 08:30:58;;;;;;;3.38;1.50;;;19.00;97.20;;;;;;5094365;28;20099;-66
2022/07/07 08:33:24;;;;;;;2.67;1.40;;;19.00;97.40;;;;;;5094514;28;20060;-64
2022/07/07 08:35:50;;;;;;;4.82;1.52;;;19.00;97.40;;;;;;5094291;28;20031;-65
2022/07/07 08:38:18;;;;;;;4.40;1.77;;;19.00;97.40;;;;;;5094184;28;20035;-65
2022/07/07 08:40:44;;;;;;;5.20;1.60;;;19.10;97.50;;;;;;5095158;28;20437;-61
2022/07/07 08:43:10;;;;;;;4.53;1.77;;;19.20;97.40;;;;;;5096174;28;20059;-59
2022/07/07 08:45:35;;;;;;;6.85;1.73;;;19.20;97.40;;;;;;5093929;28;20060;-59
2022/07/07 08:48:01;;;;;;;8.48;1.70;;;19.30;97.30;;;;;;5095307;28;20339;-60
2022/07/07 08:50:26;;;;;;;4.85;1.55;;;19.60;97.00;;;;;;5093745;28;20032;-59
2022/07/07 08:52:54;;;;;;;4.63;1.77;;;19.70;96.50;;;;;;5095752;28;20020;-59
2022/07/07 08:55:23;;;;;;;4.80;1.77;;;19.90;96.80;;;;;;5093636;28;20085;-60
2022/07/07 08:57:54;;;;;;;4.95;1.90;;;20.20;95.90;;;;;;5093762;28;20361;-60
2022/07/07 09:00:20;;;;;;;5.95;1.67;;;20.80;95.00;;;;;;5093833;28;20028;-58
2022/07/07 09:02:46;;;;;;;6.38;1.42;;;22.00;93.30;;;;;;5091866;28;20473;-62
2022/07/07 09:05:11;;;;;;;3.67;1.50;;;22.50;92.00;;;;;;5093826;28;20085;-60
2022/07/07 09:07:50;;;;;;;;;;;23.70;90.70;;;;;;5092589;28;20024;-61
2022/07/07 09:10:32;;;;;;;4.35;1.42;;;25.90;85.00;;;;;;5093581;28;20348;-63
2022/07/07 09:12:58;;;;;;;4.03;1.60;;;27.60;79.20;;;;;;5093310;28;20039;-63
2022/07/07 09:15:24;;;;;;;3.70;1.60;;;28.30;76.40;;;;;;5092921;28;20432;-61
2022/07/07 09:17:49;;;;;;;6.68;1.27;;;29.60;73.50;;;;;;5093553;28;20028;-62
2022/07/07 09:20:15;;;;;;;6.47;1.75;;;29.80;71.80;;;;;;5093694;28;20023;-60
2022/07/07 09:22:53;;;;;;;5.43;1.80;;;28.80;72.10;;;;;;5093366;28;20035;-60
2022/07/07 09:25:21;;;;;;;3.65;1.60;;;27.30;74.40;;;;;;5092358;28;20024;-59
2022/07/07 09:27:56;;;;;;;6.18;2.05;;;26.30;77.00;;;;;;5093044;28;20104;-60
2022/07/07 09:30:31;;;;;;;5.40;1.95;;;25.10;79.40;;;;;;5093264;28;20059;-61
2022/07/07 09:32:57;;;;;;;8.07;2.08;;;24.30;82.00;;;;;;5091612;28;20028;-61
2022/07/07 09:38:22;;;;;;;4.78;1.90;;;23.60;84.70;;;;;;5097938;28;20085;-61
2022/07/07 09:40:52;;;;;;;3.13;1.63;;;23.20;86.30;;;;;;5102031;28;20125;-62
2022/07/07 09:43:19;;;;;;;6.68;2.10;;;23.00;87.30;;;;;;5102838;28;20032;-61
2022/07/07 09:46:11;;;;;;;5.25;1.70;;;22.90;87.90;;;;;;5099784;28;20032;-61
2022/07/07 09:48:39;;;;;;;5.95;2.03;;;22.80;89.40;;;;;;5094347;28;20031;-60
2022/07/07 09:51:19;;;;;;;3.85;1.60;;;22.70;89.70;;;;;;5094535;28;20016;-61
2022/07/07 09:54:04;;;;;;;8.43;1.77;;;22.90;89.80;;;;;;5094436;28;20021;-60
2022/07/07 09:56:40;;;;;;;7.85;2.10;;;22.80;90.00;;;;;;5092150;28;20054;-61
2022/07/07 09:59:08;;;;;;;4.97;1.98;;;22.80;90.10;;;;;;5091407;28;20056;-60
2022/07/07 10:01:45;;;;;;;2.45;1.70;;;22.70;90.50;;;;;;5092358;28;20027;-60
2022/07/07 10:04:12;;;;;;;;;;;22.70;90.70;;;;;;5091778;28;20024;-60
2022/07/07 10:06:40;;;;;;;4.60;1.98;;;22.60;90.90;;;;;;5092918;28;19992;-59
2022/07/07 10:09:11;;;;;;;5.50;1.75;;;22.50;90.90;;;;;;5093045;28;20455;-59
2022/07/07 10:11:55;;;;;;;5.38;1.80;;;22.60;91.10;;;;;;5093330;28;20016;-60
2022/07/07 10:14:32;;;;;;;4.15;1.80;;;22.60;91.20;;;;;;5093263;28;20089;-59
2022/07/07 10:17:00;;;;;;;5.60;2.22;;;22.60;91.10;;;;;;5093358;28;20501;-62
2022/07/07 10:19:27;;;;;;;4.75;2.05;;;22.60;91.10;;;;;;5092753;28;20039;-60
2022/07/07 10:21:56;;;;;;;;;;;22.60;91.20;;;;;;5093546;28;20028;-59
2022/07/07 10:24:26;;;;;;;5.45;1.75;;;22.60;91.40;;;;;;5093851;28;19908;-60
2022/07/07 10:26:53;;;;;;;7.07;2.05;;;22.60;91.60;;;;;;5098077;28;20023;-60
2022/07/07 10:29:38;;;;;;;8.88;2.50;;;22.60;91.40;;;;;;5098464;28;20468;-62
2022/07/07 10:32:04;;;;;;;8.88;2.33;;;22.50;91.50;;;;;;5096780;28;20092;-59
2022/07/07 10:34:33;;;;;;;5.85;1.88;;;22.30;91.80;;;;;;5096586;28;20152;-58
2022/07/07 10:37:01;;;;;;;8.60;1.98;;;22.30;91.90;;;;;;5095249;28;20032;-58
2022/07/07 10:39:30;;;;;;;9.70;1.90;;;22.20;92.20;;;;;;5096100;28;20466;-55
2022/07/07 10:42:14;;;;;;;4.88;2.50;;;22.10;92.50;;;;;;5096750;28;20043;-59
2022/07/07 10:44:42;;;;;;;3.13;1.85;;;22.00;92.80;;;;;;5096014;28;20476;-60
2022/07/07 10:47:16;;;;;;;6.18;1.92;;;22.00;92.90;;;;;;5095805;28;20134;-60
2022/07/07 10:49:43;;;;;;;3.78;2.38;;;22.10;92.90;;;;;;5095956;28;20057;-58
2022/07/07 10:52:42;;;;;;;5.60;2.10;;;22.10;92.90;;;;;;5095512;28;20357;-57
2022/07/07 10:55:08;;;;;;;9.65;2.25;;;22.10;93.00;;;;;;5095385;28;20099;-59
2022/07/07 10:57:42;;;;;;;7.53;1.77;;;22.00;93.20;;;;;;5095565;28;20024;-62
2022/07/07 11:00:13;;;;;;;6.30;2.05;;;21.90;93.50;;;;;;5096417;28;20055;-62
2022/07/07 11:02:39;;;;;;;2.58;1.50;;;21.90;93.50;;;;;;5098870;28;20024;-61
2022/07/07 11:05:14;;;;;;;2.85;1.52;;;22.00;93.70;;;;;;5098443;28;20039;-60
2022/07/07 11:07:56;;;;;;;16.58;6.28;;;22.00;93.80;;;;;;5099068;28;20050;-62
2022/07/07 11:10:42;;;;;;;7.50;1.85;;;22.10;94.00;;;;;;5100212;28;20016;-63
2022/07/07 11:13:21;;;;;;;7.85;1.90;;;22.20;93.90;;;;;;5098227;28;20025;-61
2022/07/07 11:16:12;;;;;;;4.97;1.75;;;22.50;93.80;;;;;;5094406;28;20039;-61
2022/07/07 11:18:38;;;;;;;4.97;1.35;;;22.70;93.50;;;;;;5095819;28;20111;-60
2022/07/07 11:21:05;;;;;;;3.70;1.40;;;23.00;92.90;;;;;;5095415;28;20451;-61
2022/07/07 11:23:50;;;;;;;3.78;1.45;;;23.40;91.90;;;;;;5095698;28;20485;-59
2022/07/07 11:26:25;;;;;;;4.97;1.60;;;23.60;91.20;;;;;;5093983;28;20031;-59
2022/07/07 11:28:52;;;;;;;3.35;1.48;;;23.70;91.30;;;;;;5096198;28;20024;-61
2022/07/07 11:31:17;;;;;;;2.08;1.33;;;23.70;91.40;;;;;;5098037;28;20012;-60
2022/07/07 11:33:52;;;;;;;4.60;1.77;;;23.60;91.40;;;;;;5098414;28;20059;-63
2022/07/07 11:36:21;;;;;;;6.65;1.63;;;23.50;91.60;;;;;;5096285;28;20069;-62
2022/07/07 11:38:49;;;;;;;3.38;1.60;;;23.20;92.00;;;;;;5094685;28;20024;-58
2022/07/07 11:41:15;;;;;;;4.57;1.60;;;23.00;92.20;;;;;;5094498;28;20028;-62
2022/07/07 11:43:41;;;;;;;1.67;1.42;;;22.80;92.70;;;;;;5094696;28;20492;-61
2022/07/07 11:46:07;;;;;;;;;;;22.80;92.50;;;;;;5095335;28;20165;-59
2022/07/07 11:48:38;;;;;;;5.05;1.55;;;23.00;92.30;;;;;;5094396;28;19911;-61
2022/07/07 11:51:04;;;;;;;6.72;1.75;;;23.00;92.30;;;;;;5094756;28;20016;-60
2022/07/07 11:53:30;;;;;;;4.78;1.40;;;23.10;92.10;;;;;;5094754;28;20020;-62
2022/07/07 11:55:55;;;;;;;3.42;1.70;;;23.20;92.20;;;;;;5094810;28;20028;-59
2022/07/07 11:58:21;;;;;;;3.60;1.50;;;23.20;91.80;;;;;;5094342;28;20573;-62
2022/07/07 12:00:46;;;;;;;;;;;23.10;92.10;;;;;;5094448;28;20431;-62
2022/07/07 12:03:12;;;;;;;5.15;1.58;;;23.00;92.20;;;;;;5092877;28;19959;-62
2022/07/07 12:05:45;;;;;;;;;;;22.90;92.50;;;;;;5093673;28;20024;-62
2022/07/07 12:08:13;;;;;;;3.00;1.48;;;22.80;92.70;;;;;;5094029;28;19904;-62
2022/07/07 12:10:58;;;;;;;3.65;1.90;;;22.70;92.80;;;;;;5094089;28;20027;-62
2022/07/07 12:13:25;;;;;;;3.95;1.50;;;22.80;93.00;;;;;;5094133;28;20028;-62
2022/07/07 12:15:53;;;;;;;5.40;1.50;;;22.80;93.00;;;;;;5094147;28;20039;-62
2022/07/07 12:18:40;;;;;;;3.05;1.38;;;22.90;92.80;;;;;;5093976;28;20024;-64
2022/07/07 12:21:08;;;;;;;5.22;1.75;;;22.80;92.90;;;;;;5094062;28;20340;-62
2022/07/07 12:23:39;;;;;;;2.30;1.30;;;22.90;92.80;;;;;;5094059;28;20058;-61
2022/07/07 12:26:07;;;;;;;4.78;1.42;;;22.90;93.00;;;;;;5098214;28;20032;-61
2022/07/07 12:28:36;;;;;;;2.20;1.40;;;22.90;93.10;;;;;;5100101;28;20016;-63
2022/07/07 12:31:03;;;;;;;3.75;1.50;;;23.00;93.00;;;;;;5100598;28;20073;-62
2022/07/07 12:33:32;;;;;;;3.33;1.50;;;23.30;92.80;;;;;;5097529;28;20023;-61
2022/07/07 12:36:11;;;;;;;5.78;1.30;;;23.60;92.60;;;;;;5092908;28;20032;-63
2022/07/07 12:38:39;;;;;;;2.30;1.50;;;23.90;92.00;;;;;;5093241;28;20068;-61
2022/07/07 12:41:05;;;;;;;4.78;1.42;;;23.90;91.90;;;;;;5093929;28;20089;-62
2022/07/07 12:43:36;;;;;;;3.10;1.50;;;23.80;91.80;;;;;;5093823;28;20480;-59
2022/07/07 12:46:11;;;;;;;2.55;1.45;;;23.80;92.00;;;;;;5093998;28;20032;-62
2022/07/07 12:48:44;;;;;;;2.78;1.20;;;23.80;92.00;;;;;;5093613;28;20024;-62
2022/07/07 12:51:10;;;;;;;3.55;1.50;;;23.90;91.90;;;;;;5093612;28;20020;-63
2022/07/07 12:53:36;;;;;;;4.50;1.83;;;23.70;92.20;;;;;;5093559;28;20036;-62
2022/07/07 12:56:09;;;;;;;11.40;1.48;;;23.60;92.10;;;;;;5093660;28;20028;-59
2022/07/07 12:59:01;;;;;;;4.05;1.65;;;23.60;92.00;;;;;;5093152;28;20028;-62